sensor_id;sensor_type;location;lat;lon;timestamp;temperature;humidity
23497;DHT22;11925;48.122;11.560;2022-10-31T00:00:52;14.90;99.90
23497;DHT22;11925;48.122;11.560;2022-10-31T00:03:21;14.80;99.90
23497;DHT22;11925;48.122;11.560;2022-10-31T00:05:50;14.80;99.90
23497;DHT22;11925;48.122;11.560;2022-10-31T00:08:19;14.80;99.90
23497;DHT22;11925;48.122;11.560;2022-10-31T00:10:47;14.80;99.90
23497;DHT22;11925;48.122;11.560;2022-10-31T00:13:15;14.80;99.90
23497;DHT22;11925;48.122;11.560;2022-10-31T00:15:45;14.80;99.90
23497;DHT22;11925;48.122;11.560;2022-10-31T00:18:13;14.80;99.90
23497;DHT22;11925;48.122;11.560;2022-10-31T00:20:42;14.70;99.90
23497;DHT22;11925;48.122;11.560;2022-10-31T00:23:11;14.80;99.90
23497;DHT22;11925;48.122;11.560;2022-10-31T00:25:40;14.80;99.90
23497;DHT22;11925;48.122;11.560;2022-10-31T00:28:09;14.80;99.90
23497;DHT22;11925;48.122;11.560;2022-10-31T00:30:39;14.70;99.90
23497;DHT22;11925;48.122;11.560;2022-10-31T00:33:08;14.70;99.90
23497;DHT22;11925;48.122;11.560;2022-10-31T00:35:37;14.70;99.90
23497;DHT22;11925;48.122;11.560;2022-10-31T00:38:05;14.70;99.90
23497;DHT22;11925;48.122;11.560;2022-10-31T00:40:33;14.70;99.90
23497;DHT22;11925;48.122;11.560;2022-10-31T00:43:02;14.70;99.90
23497;DHT22;11925;48.122;11.560;2022-10-31T00:45:31;14.70;99.90
23497;DHT22;11925;48.122;11.560;2022-10-31T00:48:00;14.70;99.90
23497;DHT22;11925;48.122;11.560;2022-10-31T00:50:31;14.70;99.90
23497;DHT22;11925;48.122;11.560;2022-10-31T00:52:59;14.70;99.90
23497;DHT22;11925;48.122;11.560;2022-10-31T00:55:28;14.70;99.90
23497;DHT22;11925;48.122;11.560;2022-10-31T00:57:56;14.70;99.90
23497;DHT22;11925;48.122;11.560;2022-10-31T01:00:26;14.70;99.90
23497;DHT22;11925;48.122;11.560;2022-10-31T01:02:55;14.70;99.90
23497;DHT22;11925;48.122;11.560;2022-10-31T01:05:25;14.60;99.90
23497;DHT22;11925;48.122;11.560;2022-10-31T01:07:55;14.60;99.90
23497;DHT22;11925;48.122;11.560;2022-10-31T01:10:25;14.60;99.90
23497;DHT22;11925;48.122;11.560;2022-10-31T01:12:54;14.60;99.90
23497;DHT22;11925;48.122;11.560;2022-10-31T01:15:23;14.60;99.90
23497;DHT22;11925;48.122;11.560;2022-10-31T01:17:51;14.60;99.90
23497;DHT22;11925;48.122;11.560;2022-10-31T01:20:19;14.60;99.90
23497;DHT22;11925;48.122;11.560;2022-10-31T01:22:48;14.60;99.90
23497;DHT22;11925;48.122;11.560;2022-10-31T01:25:17;14.60;99.90
23497;DHT22;11925;48.122;11.560;2022-10-31T01:27:47;14.60;99.90
23497;DHT22;11925;48.122;11.560;2022-10-31T01:30:15;14.60;99.90
23497;DHT22;11925;48.122;11.560;2022-10-31T01:32:44;14.60;99.90
23497;DHT22;11925;48.122;11.560;2022-10-31T01:35:12;14.60;99.90
23497;DHT22;11925;48.122;11.560;2022-10-31T01:37:40;14.50;99.90
23497;DHT22;11925;48.122;11.560;2022-10-31T01:40:10;14.50;99.90
23497;DHT22;11925;48.122;11.560;2022-10-31T01:42:40;14.50;99.90
23497;DHT22;11925;48.122;11.560;2022-10-31T01:45:10;14.50;99.90
23497;DHT22;11925;48.122;11.560;2022-10-31T01:47:42;14.50;99.90
23497;DHT22;11925;48.122;11.560;2022-10-31T01:50:25;14.50;99.90
23497;DHT22;11925;48.122;11.560;2022-10-31T01:52:55;14.50;99.90
23497;DHT22;11925;48.122;11.560;2022-10-31T01:55:25;14.50;99.90
23497;DHT22;11925;48.122;11.560;2022-10-31T01:58:01;14.50;99.90
23497;DHT22;11925;48.122;11.560;2022-10-31T02:00:33;14.50;99.90
23497;DHT22;11925;48.122;11.560;2022-10-31T02:03:01;14.50;99.90
23497;DHT22;11925;48.122;11.560;2022-10-31T02:05:31;14.50;99.90
23497;DHT22;11925;48.122;11.560;2022-10-31T02:08:04;14.50;99.90
23497;DHT22;11925;48.122;11.560;2022-10-31T02:10:36;14.40;99.90
23497;DHT22;11925;48.122;11.560;2022-10-31T02:13:09;14.50;99.90
23497;DHT22;11925;48.122;11.560;2022-10-31T02:15:44;14.50;99.90
23497;DHT22;11925;48.122;11.560;2022-10-31T02:18:13;14.50;99.90
23497;DHT22;11925;48.122;11.560;2022-10-31T02:20:49;14.50;99.90
23497;DHT22;11925;48.122;11.560;2022-10-31T02:29:34;14.40;99.90
23497;DHT22;11925;48.122;11.560;2022-10-31T02:32:09;14.40;99.90
23497;DHT22;11925;48.122;11.560;2022-10-31T02:34:46;14.40;99.90
23497;DHT22;11925;48.122;11.560;2022-10-31T02:37:21;14.40;99.90
23497;DHT22;11925;48.122;11.560;2022-10-31T02:39:56;14.40;99.90
23497;DHT22;11925;48.122;11.560;2022-10-31T02:42:49;14.40;99.90
23497;DHT22;11925;48.122;11.560;2022-10-31T02:45:24;14.40;99.90
23497;DHT22;11925;48.122;11.560;2022-10-31T02:47:58;14.40;99.90
23497;DHT22;11925;48.122;11.560;2022-10-31T02:50:31;14.40;99.90
23497;DHT22;11925;48.122;11.560;2022-10-31T02:53:02;14.40;99.90
23497;DHT22;11925;48.122;11.560;2022-10-31T02:55:51;14.30;99.90
23497;DHT22;11925;48.122;11.560;2022-10-31T02:58:26;14.30;99.90
23497;DHT22;11925;48.122;11.560;2022-10-31T03:01:13;14.30;99.90
23497;DHT22;11925;48.122;11.560;2022-10-31T03:04:02;14.30;99.90
23497;DHT22;11925;48.122;11.560;2022-10-31T03:06:36;14.40;99.90
23497;DHT22;11925;48.122;11.560;2022-10-31T03:09:22;14.30;99.90
23497;DHT22;11925;48.122;11.560;2022-10-31T03:11:58;14.30;99.90
23497;DHT22;11925;48.122;11.560;2022-10-31T03:14:34;14.30;99.90
23497;DHT22;11925;48.122;11.560;2022-10-31T03:17:09;14.30;99.90
23497;DHT22;11925;48.122;11.560;2022-10-31T03:19:42;14.30;99.90
23497;DHT22;11925;48.122;11.560;2022-10-31T03:22:16;14.30;99.90
23497;DHT22;11925;48.122;11.560;2022-10-31T03:24:47;14.30;99.90
23497;DHT22;11925;48.122;11.560;2022-10-31T03:27:21;14.30;99.90
23497;DHT22;11925;48.122;11.560;2022-10-31T03:29:54;14.30;99.90
23497;DHT22;11925;48.122;11.560;2022-10-31T03:32:24;14.30;99.90
23497;DHT22;11925;48.122;11.560;2022-10-31T03:34:58;14.30;99.90
23497;DHT22;11925;48.122;11.560;2022-10-31T03:37:29;14.30;99.90
23497;DHT22;11925;48.122;11.560;2022-10-31T03:39:59;14.30;99.90
23497;DHT22;11925;48.122;11.560;2022-10-31T03:42:30;14.30;99.90
23497;DHT22;11925;48.122;11.560;2022-10-31T03:45:02;14.20;99.90
23497;DHT22;11925;48.122;11.560;2022-10-31T03:47:32;14.20;99.90
23497;DHT22;11925;48.122;11.560;2022-10-31T03:50:02;14.20;99.90
23497;DHT22;11925;48.122;11.560;2022-10-31T03:52:35;14.20;99.90
23497;DHT22;11925;48.122;11.560;2022-10-31T03:55:13;14.20;99.90
23497;DHT22;11925;48.122;11.560;2022-10-31T03:57:51;14.20;99.90
23497;DHT22;11925;48.122;11.560;2022-10-31T04:00:22;14.20;99.90
23497;DHT22;11925;48.122;11.560;2022-10-31T04:02:57;14.20;99.90
23497;DHT22;11925;48.122;11.560;2022-10-31T04:05:32;14.20;99.90
23497;DHT22;11925;48.122;11.560;2022-10-31T04:08:04;14.20;99.90
23497;DHT22;11925;48.122;11.560;2022-10-31T04:10:37;14.20;99.90
23497;DHT22;11925;48.122;11.560;2022-10-31T04:13:08;14.20;99.90
23497;DHT22;11925;48.122;11.560;2022-10-31T04:15:47;14.20;99.90
23497;DHT22;11925;48.122;11.560;2022-10-31T04:18:17;14.20;99.90
23497;DHT22;11925;48.122;11.560;2022-10-31T04:20:49;14.20;99.90
23497;DHT22;11925;48.122;11.560;2022-10-31T04:23:20;14.20;99.90
23497;DHT22;11925;48.122;11.560;2022-10-31T04:25:49;14.20;99.90
23497;DHT22;11925;48.122;11.560;2022-10-31T04:28:18;14.20;99.90
23497;DHT22;11925;48.122;11.560;2022-10-31T04:30:47;14.20;99.90
23497;DHT22;11925;48.122;11.560;2022-10-31T04:33:16;14.20;99.90
23497;DHT22;11925;48.122;11.560;2022-10-31T04:35:47;14.20;99.90
23497;DHT22;11925;48.122;11.560;2022-10-31T04:38:17;14.20;99.90
23497;DHT22;11925;48.122;11.560;2022-10-31T04:40:47;14.10;99.90
23497;DHT22;11925;48.122;11.560;2022-10-31T04:43:33;14.20;99.90
23497;DHT22;11925;48.122;11.560;2022-10-31T04:46:02;14.10;99.90
23497;DHT22;11925;48.122;11.560;2022-10-31T04:48:31;14.00;99.90
23497;DHT22;11925;48.122;11.560;2022-10-31T04:51:03;14.20;99.90
23497;DHT22;11925;48.122;11.560;2022-10-31T04:53:33;14.10;99.90
23497;DHT22;11925;48.122;11.560;2022-10-31T04:56:19;14.10;99.90
23497;DHT22;11925;48.122;11.560;2022-10-31T04:58:54;14.10;99.90
23497;DHT22;11925;48.122;11.560;2022-10-31T05:01:24;14.10;99.90
23497;DHT22;11925;48.122;11.560;2022-10-31T05:03:54;14.10;99.90
23497;DHT22;11925;48.122;11.560;2022-10-31T05:06:23;14.10;99.90
23497;DHT22;11925;48.122;11.560;2022-10-31T05:08:52;14.10;99.90
23497;DHT22;11925;48.122;11.560;2022-10-31T05:11:21;14.10;99.90
23497;DHT22;11925;48.122;11.560;2022-10-31T05:13:49;14.10;99.90
23497;DHT22;11925;48.122;11.560;2022-10-31T05:16:36;14.10;99.90
23497;DHT22;11925;48.122;11.560;2022-10-31T05:19:42;14.10;99.90
23497;DHT22;11925;48.122;11.560;2022-10-31T05:22:31;14.10;99.90
23497;DHT22;11925;48.122;11.560;2022-10-31T05:25:02;14.10;99.90
23497;DHT22;11925;48.122;11.560;2022-10-31T05:27:30;14.10;99.90
23497;DHT22;11925;48.122;11.560;2022-10-31T05:29:58;14.10;99.90
23497;DHT22;11925;48.122;11.560;2022-10-31T05:32:37;14.10;99.90
23497;DHT22;11925;48.122;11.560;2022-10-31T05:35:37;14.10;99.90
23497;DHT22;11925;48.122;11.560;2022-10-31T05:38:31;14.10;99.90
23497;DHT22;11925;48.122;11.560;2022-10-31T05:41:11;14.10;99.90
23497;DHT22;11925;48.122;11.560;2022-10-31T05:43:44;14.10;99.90
23497;DHT22;11925;48.122;11.560;2022-10-31T05:46:14;14.10;99.90
23497;DHT22;11925;48.122;11.560;2022-10-31T05:49:01;14.10;99.90
23497;DHT22;11925;48.122;11.560;2022-10-31T05:51:58;14.10;99.90
23497;DHT22;11925;48.122;11.560;2022-10-31T05:54:36;14.00;99.90
23497;DHT22;11925;48.122;11.560;2022-10-31T05:57:06;14.00;99.90
23497;DHT22;11925;48.122;11.560;2022-10-31T05:59:34;14.00;99.90
23497;DHT22;11925;48.122;11.560;2022-10-31T06:02:03;14.00;99.90
23497;DHT22;11925;48.122;11.560;2022-10-31T06:04:49;14.00;99.90
23497;DHT22;11925;48.122;11.560;2022-10-31T06:07:18;14.00;99.90
23497;DHT22;11925;48.122;11.560;2022-10-31T06:09:47;14.00;99.90
23497;DHT22;11925;48.122;11.560;2022-10-31T06:12:17;14.00;99.90
23497;DHT22;11925;48.122;11.560;2022-10-31T06:15:09;14.00;99.90
23497;DHT22;11925;48.122;11.560;2022-10-31T06:17:37;14.00;99.90
23497;DHT22;11925;48.122;11.560;2022-10-31T06:20:25;14.00;99.90
23497;DHT22;11925;48.122;11.560;2022-10-31T06:23:01;14.00;99.90
23497;DHT22;11925;48.122;11.560;2022-10-31T06:25:32;14.00;99.90
23497;DHT22;11925;48.122;11.560;2022-10-31T06:28:05;14.00;99.90
23497;DHT22;11925;48.122;11.560;2022-10-31T06:30:44;14.00;99.90
23497;DHT22;11925;48.122;11.560;2022-10-31T06:33:12;14.00;99.90
23497;DHT22;11925;48.122;11.560;2022-10-31T06:35:47;14.00;99.90
23497;DHT22;11925;48.122;11.560;2022-10-31T06:38:17;14.00;99.90
23497;DHT22;11925;48.122;11.560;2022-10-31T06:40:45;14.00;99.90
23497;DHT22;11925;48.122;11.560;2022-10-31T06:43:27;14.00;99.90
23497;DHT22;11925;48.122;11.560;2022-10-31T06:46:12;14.00;99.90
23497;DHT22;11925;48.122;11.560;2022-10-31T06:48:48;14.00;99.90
23497;DHT22;11925;48.122;11.560;2022-10-31T06:51:19;14.00;99.90
23497;DHT22;11925;48.122;11.560;2022-10-31T06:53:50;14.00;99.90
23497;DHT22;11925;48.122;11.560;2022-10-31T06:56:18;14.00;99.90
23497;DHT22;11925;48.122;11.560;2022-10-31T06:58:52;14.00;99.90
23497;DHT22;11925;48.122;11.560;2022-10-31T07:01:36;14.00;99.90
23497;DHT22;11925;48.122;11.560;2022-10-31T07:04:04;14.00;99.90
23497;DHT22;11925;48.122;11.560;2022-10-31T07:06:35;14.00;99.90
23497;DHT22;11925;48.122;11.560;2022-10-31T07:09:03;14.00;99.90
23497;DHT22;11925;48.122;11.560;2022-10-31T07:11:32;14.10;99.90
23497;DHT22;11925;48.122;11.560;2022-10-31T07:14:02;14.10;99.90
23497;DHT22;11925;48.122;11.560;2022-10-31T07:16:30;14.10;99.90
23497;DHT22;11925;48.122;11.560;2022-10-31T07:18:59;14.10;99.90
23497;DHT22;11925;48.122;11.560;2022-10-31T07:21:27;14.10;99.90
23497;DHT22;11925;48.122;11.560;2022-10-31T07:23:56;14.10;99.90
23497;DHT22;11925;48.122;11.560;2022-10-31T07:26:42;14.10;99.90
23497;DHT22;11925;48.122;11.560;2022-10-31T07:29:15;14.10;99.90
23497;DHT22;11925;48.122;11.560;2022-10-31T07:31:45;14.20;99.90
23497;DHT22;11925;48.122;11.560;2022-10-31T07:34:20;14.20;99.90
23497;DHT22;11925;48.122;11.560;2022-10-31T07:37:00;14.20;99.90
23497;DHT22;11925;48.122;11.560;2022-10-31T07:39:29;14.20;99.90
23497;DHT22;11925;48.122;11.560;2022-10-31T07:41:58;14.20;99.90
23497;DHT22;11925;48.122;11.560;2022-10-31T07:44:29;14.30;99.90
23497;DHT22;11925;48.122;11.560;2022-10-31T07:47:16;14.20;99.90
23497;DHT22;11925;48.122;11.560;2022-10-31T07:50:16;14.20;99.90
23497;DHT22;11925;48.122;11.560;2022-10-31T07:53:14;14.20;99.90
23497;DHT22;11925;48.122;11.560;2022-10-31T07:56:04;14.30;99.90
23497;DHT22;11925;48.122;11.560;2022-10-31T07:58:33;14.30;99.90
23497;DHT22;11925;48.122;11.560;2022-10-31T08:01:03;14.30;99.90
23497;DHT22;11925;48.122;11.560;2022-10-31T08:03:39;14.30;99.90
23497;DHT22;11925;48.122;11.560;2022-10-31T08:06:34;14.40;99.90
23497;DHT22;11925;48.122;11.560;2022-10-31T08:09:12;14.40;99.90
23497;DHT22;11925;48.122;11.560;2022-10-31T08:11:42;14.50;99.90
23497;DHT22;11925;48.122;11.560;2022-10-31T08:14:11;14.50;99.90
23497;DHT22;11925;48.122;11.560;2022-10-31T08:16:41;14.50;99.90
23497;DHT22;11925;48.122;11.560;2022-10-31T08:19:10;14.50;99.90
23497;DHT22;11925;48.122;11.560;2022-10-31T08:21:39;14.50;99.90
23497;DHT22;11925;48.122;11.560;2022-10-31T08:24:08;14.60;99.90
23497;DHT22;11925;48.122;11.560;2022-10-31T08:26:38;14.60;99.90
23497;DHT22;11925;48.122;11.560;2022-10-31T08:29:10;14.60;99.90
23497;DHT22;11925;48.122;11.560;2022-10-31T08:31:42;14.60;99.90
23497;DHT22;11925;48.122;11.560;2022-10-31T08:34:28;14.60;99.90
23497;DHT22;11925;48.122;11.560;2022-10-31T08:37:15;14.60;99.90
23497;DHT22;11925;48.122;11.560;2022-10-31T08:39:51;14.60;99.90
23497;DHT22;11925;48.122;11.560;2022-10-31T08:42:20;14.60;99.90
23497;DHT22;11925;48.122;11.560;2022-10-31T08:44:49;14.60;99.90
23497;DHT22;11925;48.122;11.560;2022-10-31T08:47:22;14.60;99.90
23497;DHT22;11925;48.122;11.560;2022-10-31T08:49:51;14.60;99.90
23497;DHT22;11925;48.122;11.560;2022-10-31T08:52:22;14.60;99.90
23497;DHT22;11925;48.122;11.560;2022-10-31T08:55:11;14.60;99.90
23497;DHT22;11925;48.122;11.560;2022-10-31T08:57:54;14.70;99.90
23497;DHT22;11925;48.122;11.560;2022-10-31T09:00:24;14.70;99.90
23497;DHT22;11925;48.122;11.560;2022-10-31T09:03:02;14.70;99.90
23497;DHT22;11925;48.122;11.560;2022-10-31T09:05:33;14.70;99.90
23497;DHT22;11925;48.122;11.560;2022-10-31T09:08:02;14.70;99.90
23497;DHT22;11925;48.122;11.560;2022-10-31T09:10:33;14.70;99.90
23497;DHT22;11925;48.122;11.560;2022-10-31T09:13:04;14.70;99.90
23497;DHT22;11925;48.122;11.560;2022-10-31T09:15:59;14.70;99.90
23497;DHT22;11925;48.122;11.560;2022-10-31T09:18:29;14.70;99.90
23497;DHT22;11925;48.122;11.560;2022-10-31T09:20:59;14.70;99.90
23497;DHT22;11925;48.122;11.560;2022-10-31T09:23:30;14.70;99.90
23497;DHT22;11925;48.122;11.560;2022-10-31T09:26:01;14.70;99.90
23497;DHT22;11925;48.122;11.560;2022-10-31T09:28:32;14.70;99.90
23497;DHT22;11925;48.122;11.560;2022-10-31T09:31:06;14.70;99.90
23497;DHT22;11925;48.122;11.560;2022-10-31T09:33:48;14.70;99.90
23497;DHT22;11925;48.122;11.560;2022-10-31T09:36:35;14.70;99.90
23497;DHT22;11925;48.122;11.560;2022-10-31T09:39:05;14.80;99.90
23497;DHT22;11925;48.122;11.560;2022-10-31T09:41:51;14.80;99.90
23497;DHT22;11925;48.122;11.560;2022-10-31T09:44:33;14.80;99.90
23497;DHT22;11925;48.122;11.560;2022-10-31T09:47:17;14.80;99.90
23497;DHT22;11925;48.122;11.560;2022-10-31T09:50:15;14.80;99.90
23497;DHT22;11925;48.122;11.560;2022-10-31T09:52:53;14.80;99.90
23497;DHT22;11925;48.122;11.560;2022-10-31T09:55:31;14.80;99.90
23497;DHT22;11925;48.122;11.560;2022-10-31T09:58:05;14.80;99.90
23497;DHT22;11925;48.122;11.560;2022-10-31T10:00:34;14.80;99.90
23497;DHT22;11925;48.122;11.560;2022-10-31T10:03:10;14.80;99.90
23497;DHT22;11925;48.122;11.560;2022-10-31T10:05:46;14.80;99.90
23497;DHT22;11925;48.122;11.560;2022-10-31T10:08:30;14.80;99.90
23497;DHT22;11925;48.122;11.560;2022-10-31T10:11:30;14.80;99.90
23497;DHT22;11925;48.122;11.560;2022-10-31T10:14:35;14.80;99.90
23497;DHT22;11925;48.122;11.560;2022-10-31T10:17:11;14.80;99.90
23497;DHT22;11925;48.122;11.560;2022-10-31T10:20:10;14.80;99.90
23497;DHT22;11925;48.122;11.560;2022-10-31T10:22:54;14.80;99.90
23497;DHT22;11925;48.122;11.560;2022-10-31T10:25:31;14.90;99.90
23497;DHT22;11925;48.122;11.560;2022-10-31T10:28:13;14.90;99.90
23497;DHT22;11925;48.122;11.560;2022-10-31T10:30:47;14.90;99.90
23497;DHT22;11925;48.122;11.560;2022-10-31T10:33:20;14.90;99.90
23497;DHT22;11925;48.122;11.560;2022-10-31T10:35:53;14.90;99.90
23497;DHT22;11925;48.122;11.560;2022-10-31T10:38:30;14.90;99.90
23497;DHT22;11925;48.122;11.560;2022-10-31T10:41:02;14.90;99.90
23497;DHT22;11925;48.122;11.560;2022-10-31T10:43:33;14.90;99.90
23497;DHT22;11925;48.122;11.560;2022-10-31T10:46:18;14.90;99.90
23497;DHT22;11925;48.122;11.560;2022-10-31T10:49:15;14.90;99.90
23497;DHT22;11925;48.122;11.560;2022-10-31T10:51:46;14.90;99.90
23497;DHT22;11925;48.122;11.560;2022-10-31T10:54:49;14.90;99.90
23497;DHT22;11925;48.122;11.560;2022-10-31T10:57:30;14.90;99.90
23497;DHT22;11925;48.122;11.560;2022-10-31T11:00:17;14.90;99.90
23497;DHT22;11925;48.122;11.560;2022-10-31T11:02:46;14.90;99.90
23497;DHT22;11925;48.122;11.560;2022-10-31T11:05:23;14.90;99.90
23497;DHT22;11925;48.122;11.560;2022-10-31T11:07:52;14.90;99.90
23497;DHT22;11925;48.122;11.560;2022-10-31T11:10:22;14.90;99.90
23497;DHT22;11925;48.122;11.560;2022-10-31T11:13:04;14.90;99.90
23497;DHT22;11925;48.122;11.560;2022-10-31T11:15:36;14.90;99.90
23497;DHT22;11925;48.122;11.560;2022-10-31T11:18:05;14.90;99.90
23497;DHT22;11925;48.122;11.560;2022-10-31T11:20:51;15.00;99.90
23497;DHT22;11925;48.122;11.560;2022-10-31T11:23:21;14.90;99.90
23497;DHT22;11925;48.122;11.560;2022-10-31T11:25:57;14.90;99.90
23497;DHT22;11925;48.122;11.560;2022-10-31T11:28:27;14.90;99.90
23497;DHT22;11925;48.122;11.560;2022-10-31T11:30:59;15.00;99.90
23497;DHT22;11925;48.122;11.560;2022-10-31T11:33:30;15.00;99.90
23497;DHT22;11925;48.122;11.560;2022-10-31T11:36:01;15.00;99.90
23497;DHT22;11925;48.122;11.560;2022-10-31T11:38:34;15.00;99.90
23497;DHT22;11925;48.122;11.560;2022-10-31T11:41:11;15.00;99.90
23497;DHT22;11925;48.122;11.560;2022-10-31T11:43:57;15.00;99.90
23497;DHT22;11925;48.122;11.560;2022-10-31T11:46:32;15.00;99.90
23497;DHT22;11925;48.122;11.560;2022-10-31T11:49:02;15.00;99.90
23497;DHT22;11925;48.122;11.560;2022-10-31T11:51:33;15.00;99.90
23497;DHT22;11925;48.122;11.560;2022-10-31T11:54:02;15.00;99.90
23497;DHT22;11925;48.122;11.560;2022-10-31T11:56:40;15.00;99.90
23497;DHT22;11925;48.122;11.560;2022-10-31T11:59:21;15.00;99.90
23497;DHT22;11925;48.122;11.560;2022-10-31T12:01:51;15.00;99.90
23497;DHT22;11925;48.122;11.560;2022-10-31T12:04:37;15.00;99.90
23497;DHT22;11925;48.122;11.560;2022-10-31T12:07:06;15.00;99.90
23497;DHT22;11925;48.122;11.560;2022-10-31T12:09:36;15.00;99.90
23497;DHT22;11925;48.122;11.560;2022-10-31T12:15:24;15.00;99.90
23497;DHT22;11925;48.122;11.560;2022-10-31T12:18:05;15.00;99.90
23497;DHT22;11925;48.122;11.560;2022-10-31T12:20:44;15.00;99.90
23497;DHT22;11925;48.122;11.560;2022-10-31T12:23:20;15.00;99.90
23497;DHT22;11925;48.122;11.560;2022-10-31T12:25:53;15.00;99.90
23497;DHT22;11925;48.122;11.560;2022-10-31T12:28:42;15.00;99.90
23497;DHT22;11925;48.122;11.560;2022-10-31T12:31:26;15.00;99.90
23497;DHT22;11925;48.122;11.560;2022-10-31T12:34:04;15.00;99.90
23497;DHT22;11925;48.122;11.560;2022-10-31T12:36:43;15.00;99.90
23497;DHT22;11925;48.122;11.560;2022-10-31T12:39:23;15.00;99.90
23497;DHT22;11925;48.122;11.560;2022-10-31T12:41:54;15.00;99.90
23497;DHT22;11925;48.122;11.560;2022-10-31T12:47:55;15.10;99.90
23497;DHT22;11925;48.122;11.560;2022-10-31T12:50:33;15.10;99.90
23497;DHT22;11925;48.122;11.560;2022-10-31T12:53:15;15.00;99.90
23497;DHT22;11925;48.122;11.560;2022-10-31T12:55:48;15.00;99.90
23497;DHT22;11925;48.122;11.560;2022-10-31T12:58:22;15.00;99.90
23497;DHT22;11925;48.122;11.560;2022-10-31T13:01:02;15.00;99.90
23497;DHT22;11925;48.122;11.560;2022-10-31T13:03:36;15.00;99.90
23497;DHT22;11925;48.122;11.560;2022-10-31T13:06:10;15.00;99.90
23497;DHT22;11925;48.122;11.560;2022-10-31T13:08:44;15.10;99.90
23497;DHT22;11925;48.122;11.560;2022-10-31T13:11:15;15.10;99.90
23497;DHT22;11925;48.122;11.560;2022-10-31T13:13:46;15.10;99.90
23497;DHT22;11925;48.122;11.560;2022-10-31T13:16:20;15.10;99.90
23497;DHT22;11925;48.122;11.560;2022-10-31T13:18:54;15.00;99.90
23497;DHT22;11925;48.122;11.560;2022-10-31T13:21:26;15.10;99.90
23497;DHT22;11925;48.122;11.560;2022-10-31T13:23:57;15.10;99.90
23497;DHT22;11925;48.122;11.560;2022-10-31T13:26:31;15.10;99.90
23497;DHT22;11925;48.122;11.560;2022-10-31T13:29:08;15.10;99.90
23497;DHT22;11925;48.122;11.560;2022-10-31T13:31:41;15.10;99.90
23497;DHT22;11925;48.122;11.560;2022-10-31T13:34:20;15.10;99.90
23497;DHT22;11925;48.122;11.560;2022-10-31T13:36:57;15.10;99.90
23497;DHT22;11925;48.122;11.560;2022-10-31T13:39:34;15.10;99.90
23497;DHT22;11925;48.122;11.560;2022-10-31T13:42:13;15.10;99.90
23497;DHT22;11925;48.122;11.560;2022-10-31T13:44:43;15.10;99.90
23497;DHT22;11925;48.122;11.560;2022-10-31T13:47:23;15.10;99.90
23497;DHT22;11925;48.122;11.560;2022-10-31T13:50:05;15.10;99.90
23497;DHT22;11925;48.122;11.560;2022-10-31T13:52:33;15.10;99.90
23497;DHT22;11925;48.122;11.560;2022-10-31T13:55:02;15.10;99.90
23497;DHT22;11925;48.122;11.560;2022-10-31T13:57:34;15.10;99.90
23497;DHT22;11925;48.122;11.560;2022-10-31T14:00:07;15.10;99.90
23497;DHT22;11925;48.122;11.560;2022-10-31T14:02:52;15.10;99.90
23497;DHT22;11925;48.122;11.560;2022-10-31T14:05:25;15.10;99.90
23497;DHT22;11925;48.122;11.560;2022-10-31T14:07:54;15.10;99.90
23497;DHT22;11925;48.122;11.560;2022-10-31T14:10:26;15.10;99.90
23497;DHT22;11925;48.122;11.560;2022-10-31T14:13:04;15.10;99.90
23497;DHT22;11925;48.122;11.560;2022-10-31T14:15:34;15.10;99.90
23497;DHT22;11925;48.122;11.560;2022-10-31T14:18:06;15.10;99.90
23497;DHT22;11925;48.122;11.560;2022-10-31T14:20:38;15.10;99.90
23497;DHT22;11925;48.122;11.560;2022-10-31T14:23:31;15.10;99.90
23497;DHT22;11925;48.122;11.560;2022-10-31T14:26:20;15.10;99.90
23497;DHT22;11925;48.122;11.560;2022-10-31T14:28:50;15.10;99.90
23497;DHT22;11925;48.122;11.560;2022-10-31T14:31:32;15.10;99.90
23497;DHT22;11925;48.122;11.560;2022-10-31T14:34:19;15.10;99.90
23497;DHT22;11925;48.122;11.560;2022-10-31T14:37:08;15.20;99.90
23497;DHT22;11925;48.122;11.560;2022-10-31T14:39:50;15.20;99.90
23497;DHT22;11925;48.122;11.560;2022-10-31T14:42:32;15.20;99.90
23497;DHT22;11925;48.122;11.560;2022-10-31T14:45:11;15.20;99.90
23497;DHT22;11925;48.122;11.560;2022-10-31T14:47:54;15.20;99.90
23497;DHT22;11925;48.122;11.560;2022-10-31T14:50:42;15.20;99.90
23497;DHT22;11925;48.122;11.560;2022-10-31T14:53:16;15.20;99.90
23497;DHT22;11925;48.122;11.560;2022-10-31T14:55:49;15.20;99.90
23497;DHT22;11925;48.122;11.560;2022-10-31T14:58:21;15.20;99.90
23497;DHT22;11925;48.122;11.560;2022-10-31T15:00:53;15.20;99.90
23497;DHT22;11925;48.122;11.560;2022-10-31T15:03:26;15.20;99.90
23497;DHT22;11925;48.122;11.560;2022-10-31T15:06:00;15.20;99.90
23497;DHT22;11925;48.122;11.560;2022-10-31T15:08:33;15.20;99.90
23497;DHT22;11925;48.122;11.560;2022-10-31T15:11:09;15.20;99.90
23497;DHT22;11925;48.122;11.560;2022-10-31T15:13:42;15.20;99.90
23497;DHT22;11925;48.122;11.560;2022-10-31T15:16:14;15.20;99.90
23497;DHT22;11925;48.122;11.560;2022-10-31T15:18:54;15.20;99.90
23497;DHT22;11925;48.122;11.560;2022-10-31T15:21:26;15.20;99.90
23497;DHT22;11925;48.122;11.560;2022-10-31T15:23:57;15.20;99.90
23497;DHT22;11925;48.122;11.560;2022-10-31T15:26:30;15.20;99.90
23497;DHT22;11925;48.122;11.560;2022-10-31T15:29:00;15.20;99.90
23497;DHT22;11925;48.122;11.560;2022-10-31T15:31:29;15.20;99.90
23497;DHT22;11925;48.122;11.560;2022-10-31T15:34:02;15.20;99.90
23497;DHT22;11925;48.122;11.560;2022-10-31T15:36:33;15.20;99.90
23497;DHT22;11925;48.122;11.560;2022-10-31T15:39:05;15.20;99.90
23497;DHT22;11925;48.122;11.560;2022-10-31T15:41:35;15.20;99.90
23497;DHT22;11925;48.122;11.560;2022-10-31T15:44:14;15.20;99.90
23497;DHT22;11925;48.122;11.560;2022-10-31T15:46:43;15.20;99.90
23497;DHT22;11925;48.122;11.560;2022-10-31T15:49:18;15.20;99.90
23497;DHT22;11925;48.122;11.560;2022-10-31T15:51:52;15.20;99.90
23497;DHT22;11925;48.122;11.560;2022-10-31T15:54:20;15.20;99.90
23497;DHT22;11925;48.122;11.560;2022-10-31T15:56:49;15.20;99.90
23497;DHT22;11925;48.122;11.560;2022-10-31T15:59:20;15.20;99.90
23497;DHT22;11925;48.122;11.560;2022-10-31T16:01:59;15.20;99.90
23497;DHT22;11925;48.122;11.560;2022-10-31T16:04:29;15.20;99.90
23497;DHT22;11925;48.122;11.560;2022-10-31T16:07:02;15.20;99.90
23497;DHT22;11925;48.122;11.560;2022-10-31T16:09:31;15.20;99.90
23497;DHT22;11925;48.122;11.560;2022-10-31T16:11:59;15.20;99.90
23497;DHT22;11925;48.122;11.560;2022-10-31T16:14:30;15.20;99.90